Terminal Aerodrome Forecast
Issued by NWS Charleston, WV

Current Version | Previous Version | Graphics & Text | Print | Product List | Glossary On
Versions: 1 2 3 4 5 6 7 8 9 10 11 12 13 14 15 16 17 18 19 20 21 22 23
064
FTUS41 KRLX 072332
TAFPKB
TAF
KPKB 072332Z 0800/0824 00000KT P6SM OVC100
     FM081300 25006KT P6SM BKN060
     FM081500 26009KT P6SM BKN035
     FM081600 26010G18KT P6SM SCT035
     FM082200 27010G17KT P6SM BKN040=

USA.gov is the U.S. government's official web portal to all federal, state and local government web resources and services.